createdAt,value
2022-08-03T00:00:05.111Z,1013.52
2022-08-03T00:02:04.057Z,1013.52
2022-08-03T00:04:01.581Z,1013.51
2022-08-03T00:06:05.355Z,1013.51
2022-08-03T00:08:02.484Z,1013.51
2022-08-03T00:10:02.105Z,1013.51
2022-08-03T00:12:02.451Z,1013.65
2022-08-03T00:14:02.212Z,1013.65
2022-08-03T00:16:02.291Z,1013.61
2022-08-03T00:18:02.120Z,1013.61
2022-08-03T00:20:01.788Z,1013.47
2022-08-03T00:22:02.439Z,1013.47
2022-08-03T00:24:02.520Z,1013.43
2022-08-03T00:26:01.659Z,1013.39
2022-08-03T00:28:02.049Z,1013.39
2022-08-03T00:30:02.166Z,1013.42
2022-08-03T00:32:02.903Z,1013.42
2022-08-03T00:34:04.468Z,1013.44
2022-08-03T00:36:02.448Z,1013.44
2022-08-03T00:38:02.540Z,1013.34
2022-08-03T00:40:03.866Z,1013.34
2022-08-03T00:42:02.232Z,1013.33
2022-08-03T00:44:01.594Z,1013.33
2022-08-03T00:46:01.787Z,1013.45
2022-08-03T00:48:02.339Z,1013.45
2022-08-03T00:50:01.642Z,1013.36
2022-08-03T00:52:09.863Z,1013.36
2022-08-03T00:54:01.869Z,1013.35
2022-08-03T00:56:01.598Z,1013.35
2022-08-03T00:58:02.140Z,1013.29
2022-08-03T01:00:05.502Z,1013.29
2022-08-03T01:02:02.446Z,1013.33
2022-08-03T01:04:02.057Z,1013.33
2022-08-03T01:06:02.014Z,1013.26
2022-08-03T01:08:01.629Z,1013.26
2022-08-03T01:10:01.922Z,1013.22
2022-08-03T01:12:02.366Z,1013.22
2022-08-03T01:14:20.054Z,1013.12
2022-08-03T01:16:02.276Z,1013.12
2022-08-03T01:18:01.594Z,1013.13
2022-08-03T01:20:02.228Z,1013.13
2022-08-03T01:22:01.985Z,1013.09
2022-08-03T01:24:02.402Z,1013.09
2022-08-03T01:26:01.599Z,1013.08
2022-08-03T01:28:02.448Z,1013.08
2022-08-03T01:30:02.413Z,1013.09
2022-08-03T01:33:02.074Z,1013.09
2022-08-03T01:34:03.445Z,1013.16
2022-08-03T01:36:02.045Z,1013.16
2022-08-03T01:38:02.078Z,1013.1
2022-08-03T01:40:02.062Z,1013.1
2022-08-03T01:42:01.996Z,1013.04
2022-08-03T01:44:31.112Z,1013.04
2022-08-03T01:46:02.092Z,1013.03
2022-08-03T01:48:01.924Z,1013.03
2022-08-03T01:50:02.261Z,1012.98
2022-08-03T01:52:05.622Z,1012.98
2022-08-03T01:54:01.708Z,1013.07
2022-08-03T01:56:01.612Z,1013.07
2022-08-03T01:58:06.998Z,1012.95
2022-08-03T02:00:04.909Z,1012.95
2022-08-03T02:02:34.765Z,1012.93
2022-08-03T02:04:02.543Z,1012.93
2022-08-03T02:07:03.323Z,1012.97
2022-08-03T02:08:01.974Z,1012.97
2022-08-03T02:10:01.705Z,1012.86
2022-08-03T02:12:02.209Z,1012.86
2022-08-03T02:14:02.220Z,1012.92
2022-08-03T02:16:01.838Z,1012.92
2022-08-03T02:18:02.227Z,1012.93
2022-08-03T02:20:01.668Z,1012.93
2022-08-03T02:22:02.215Z,1012.91
2022-08-03T02:24:02.141Z,1012.91
2022-08-03T02:26:02.240Z,1012.87
2022-08-03T02:28:01.987Z,1012.87
2022-08-03T02:30:02.528Z,1012.95
2022-08-03T02:32:01.926Z,1012.95
2022-08-03T02:34:01.622Z,1012.73
2022-08-03T02:36:01.886Z,1012.73
2022-08-03T02:38:02.045Z,1012.76
2022-08-03T02:40:02.602Z,1012.76
2022-08-03T02:42:03.468Z,1012.72
2022-08-03T02:44:07.578Z,1012.72
2022-08-03T02:46:02.140Z,1012.84
2022-08-03T02:48:01.943Z,1012.84
2022-08-03T02:50:02.633Z,1012.86
2022-08-03T02:52:01.936Z,1012.86
2022-08-03T02:54:01.980Z,1012.77
2022-08-03T02:56:02.119Z,1012.77
2022-08-03T02:58:02.550Z,1012.68
2022-08-03T03:00:04.819Z,1012.68
2022-08-03T03:02:01.774Z,1012.62
2022-08-03T03:04:02.482Z,1012.62
2022-08-03T03:06:05.957Z,1012.6
2022-08-03T03:08:02.541Z,1012.6
2022-08-03T03:10:02.166Z,1012.56
2022-08-03T03:12:02.858Z,1012.56
2022-08-03T03:14:02.115Z,1012.49
2022-08-03T03:16:02.522Z,1012.49
2022-08-03T03:18:01.837Z,1012.64
2022-08-03T03:20:02.167Z,1012.64
2022-08-03T03:22:01.608Z,1012.61
2022-08-03T03:24:01.823Z,1012.61
2022-08-03T03:26:01.603Z,1012.82
2022-08-03T03:28:02.315Z,1012.82
2022-08-03T03:30:01.843Z,1012.76
2022-08-03T03:32:02.993Z,1012.76
2022-08-03T03:34:01.707Z,1012.75
2022-08-03T03:36:02.000Z,1012.75
2022-08-03T03:38:02.302Z,1012.73
2022-08-03T03:40:01.690Z,1012.73
2022-08-03T03:42:02.509Z,1012.62
2022-08-03T03:44:02.522Z,1012.62
2022-08-03T03:46:01.705Z,1012.76
2022-08-03T03:48:01.934Z,1012.76
2022-08-03T03:50:01.781Z,1012.79
2022-08-03T03:52:01.912Z,1012.79
2022-08-03T03:54:02.061Z,1012.69
2022-08-03T03:56:03.232Z,1012.77
2022-08-03T03:58:02.232Z,1012.77
2022-08-03T04:00:06.560Z,1012.68
2022-08-03T04:02:01.608Z,1012.68
2022-08-03T04:04:02.236Z,1012.61
2022-08-03T04:06:01.817Z,1012.61
2022-08-03T04:08:02.386Z,1012.76
2022-08-03T04:10:15.190Z,1012.76
2022-08-03T04:12:02.163Z,1012.76
2022-08-03T04:14:02.508Z,1012.76
2022-08-03T04:16:02.471Z,1012.69
2022-08-03T04:18:02.187Z,1012.69
2022-08-03T04:20:01.854Z,1012.85
2022-08-03T04:22:02.428Z,1012.85
2022-08-03T04:24:01.670Z,1012.83
2022-08-03T04:26:01.789Z,1012.83
2022-08-03T04:28:31.879Z,1012.85
2022-08-03T04:30:01.942Z,1012.85
2022-08-03T04:32:03.473Z,1012.83
2022-08-03T04:34:02.393Z,1012.83
2022-08-03T04:36:04.134Z,1012.86
2022-08-03T04:38:02.506Z,1012.86
2022-08-03T04:40:02.106Z,1012.95
2022-08-03T04:42:17.371Z,1012.95
2022-08-03T04:44:02.146Z,1012.88
2022-08-03T04:46:01.862Z,1012.88
2022-08-03T04:48:03.319Z,1012.87
2022-08-03T04:50:02.336Z,1012.87
2022-08-03T04:52:02.453Z,1012.89
2022-08-03T04:54:01.866Z,1012.89
2022-08-03T04:56:01.823Z,1012.99
2022-08-03T04:58:02.430Z,1012.99
2022-08-03T05:00:05.676Z,1013.06
2022-08-03T05:02:01.927Z,1013.06
2022-08-03T05:04:01.759Z,1013.18
2022-08-03T05:06:11.959Z,1013.18
2022-08-03T05:08:03.810Z,1013.16
2022-08-03T05:10:03.696Z,1013.16
2022-08-03T05:12:02.053Z,1013.11
2022-08-03T05:14:02.187Z,1013.11
2022-08-03T05:16:01.757Z,1013.17
2022-08-03T05:18:02.319Z,1013.17
2022-08-03T05:20:02.661Z,1013.17
2022-08-03T05:22:01.856Z,1013.17
2022-08-03T05:24:02.220Z,1013.18
2022-08-03T05:26:01.824Z,1013.18
2022-08-03T05:28:01.623Z,1013.12
2022-08-03T05:30:34.693Z,1013.12
2022-08-03T05:32:08.543Z,1013.15
2022-08-03T05:34:02.214Z,1013.15
2022-08-03T05:36:04.803Z,1013.13
2022-08-03T05:38:01.799Z,1013.13
2022-08-03T05:40:02.470Z,1013.15
2022-08-03T05:42:02.057Z,1013.15
2022-08-03T05:44:01.715Z,1013.24
2022-08-03T05:46:13.333Z,1013.24
2022-08-03T05:48:01.660Z,1013.26
2022-08-03T05:50:02.374Z,1013.26
2022-08-03T05:52:15.667Z,1013.2
2022-08-03T05:54:02.283Z,1013.2
2022-08-03T05:56:16.593Z,1013.16
2022-08-03T05:58:01.674Z,1013.16
2022-08-03T06:00:06.267Z,1013.06
2022-08-03T06:02:02.537Z,1013.06
2022-08-03T06:04:01.581Z,1013.03
2022-08-03T06:06:01.895Z,1013.03
2022-08-03T06:08:02.139Z,1013.07
2022-08-03T06:10:38.549Z,1013.07
2022-08-03T06:12:02.073Z,1013
2022-08-03T06:14:01.661Z,1013
2022-08-03T06:16:02.036Z,1013.16
2022-08-03T06:18:02.594Z,1013.16
2022-08-03T06:20:02.406Z,1013.25
2022-08-03T06:22:03.513Z,1013.25
2022-08-03T06:24:02.772Z,1013.14
2022-08-03T06:26:01.972Z,1013.14
2022-08-03T06:28:02.479Z,1013.16
2022-08-03T06:30:01.967Z,1013.16
2022-08-03T06:32:01.825Z,1013.16
2022-08-03T06:34:35.977Z,1013.16
2022-08-03T06:36:02.397Z,1013.2
2022-08-03T06:38:02.380Z,1013.2
2022-08-03T06:40:02.390Z,1013.27
2022-08-03T06:42:01.576Z,1013.27
2022-08-03T06:44:04.724Z,1013.25
2022-08-03T06:46:02.562Z,1013.25
2022-08-03T06:48:01.630Z,1013.21
2022-08-03T06:50:19.712Z,1013.21
2022-08-03T06:52:07.140Z,1013.28
2022-08-03T06:54:01.619Z,1013.28
2022-08-03T06:56:02.222Z,1013.23
2022-08-03T06:58:03.908Z,1013.23
2022-08-03T07:00:12.594Z,1013.28
2022-08-03T07:02:01.911Z,1013.28
2022-08-03T07:04:01.976Z,1013.25
2022-08-03T07:06:03.715Z,1013.25
2022-08-03T07:08:01.674Z,1013.32
2022-08-03T07:10:02.741Z,1013.32
2022-08-03T07:12:01.752Z,1013.35
2022-08-03T07:14:02.189Z,1013.44
2022-08-03T07:16:02.286Z,1013.44
2022-08-03T07:18:02.242Z,1013.61
2022-08-03T07:20:01.850Z,1013.61
2022-08-03T07:22:04.619Z,1013.65
2022-08-03T07:24:02.166Z,1013.65
2022-08-03T07:26:02.093Z,1013.67
2022-08-03T07:28:02.420Z,1013.67
2022-08-03T07:30:02.263Z,1013.68
2022-08-03T07:32:02.179Z,1013.68
2022-08-03T07:34:02.521Z,1013.74
2022-08-03T07:36:01.732Z,1013.74
2022-08-03T07:38:02.167Z,1013.73
2022-08-03T07:40:01.942Z,1013.73
2022-08-03T07:42:01.816Z,1013.8
2022-08-03T07:44:02.396Z,1013.8
2022-08-03T07:46:01.749Z,1013.76
2022-08-03T07:48:01.663Z,1013.76
2022-08-03T07:50:02.316Z,1013.77
2022-08-03T07:52:01.797Z,1013.77
2022-08-03T07:54:02.129Z,1013.79
2022-08-03T07:56:05.901Z,1013.79
2022-08-03T07:58:01.779Z,1013.78
2022-08-03T08:00:05.201Z,1013.78
2022-08-03T08:02:02.196Z,1013.8
2022-08-03T08:04:02.485Z,1013.8
2022-08-03T08:06:02.227Z,1013.79
2022-08-03T08:08:02.077Z,1013.79
2022-08-03T08:10:02.089Z,1013.84
2022-08-03T08:12:02.434Z,1013.84
2022-08-03T08:14:02.410Z,1013.75
2022-08-03T08:16:02.184Z,1013.75
2022-08-03T08:18:02.583Z,1013.8
2022-08-03T08:20:03.754Z,1013.8
2022-08-03T08:22:03.237Z,1013.78
2022-08-03T08:24:02.613Z,1013.78
2022-08-03T08:26:02.326Z,1013.73
2022-08-03T08:28:33.809Z,1013.73
2022-08-03T08:30:15.998Z,1013.83
2022-08-03T08:32:02.167Z,1013.83
2022-08-03T08:34:05.003Z,1013.99
2022-08-03T08:36:01.756Z,1013.99
2022-08-03T08:38:06.122Z,1013.82
2022-08-03T08:40:01.838Z,1013.82
2022-08-03T08:42:01.705Z,1013.88
2022-08-03T08:44:01.940Z,1013.88
2022-08-03T08:46:02.440Z,1013.93
2022-08-03T08:48:08.472Z,1013.93
2022-08-03T08:50:28.380Z,1013.81
2022-08-03T08:52:02.023Z,1013.81
2022-08-03T08:54:02.204Z,1013.83
2022-08-03T08:56:01.912Z,1013.83
2022-08-03T08:58:02.384Z,1013.91
2022-08-03T09:00:06.690Z,1013.91
2022-08-03T09:02:02.820Z,1014.02
2022-08-03T09:04:02.148Z,1014.02
2022-08-03T09:06:02.724Z,1014
2022-08-03T09:08:02.222Z,1014
2022-08-03T09:10:13.965Z,1014.1
2022-08-03T09:12:42.026Z,1014.1
2022-08-03T09:14:02.417Z,1014.08
2022-08-03T09:16:01.960Z,1014.08
2022-08-03T09:18:02.240Z,1014.17
2022-08-03T09:20:04.078Z,1014.17
2022-08-03T09:22:02.479Z,1013.97
2022-08-03T09:24:06.317Z,1013.97
2022-08-03T09:26:02.252Z,1014.09
2022-08-03T09:28:01.881Z,1014.09
2022-08-03T09:30:01.889Z,1014.07
2022-08-03T09:32:02.103Z,1014.07
2022-08-03T09:34:02.554Z,1014.1
2022-08-03T09:36:01.981Z,1014.1
2022-08-03T09:38:14.659Z,1014.05
2022-08-03T09:40:01.786Z,1014.05
2022-08-03T09:42:02.344Z,1014.08
2022-08-03T09:44:02.541Z,1014.08
2022-08-03T09:46:01.710Z,1013.99
2022-08-03T09:48:02.285Z,1013.99
2022-08-03T09:50:02.032Z,1014
2022-08-03T09:52:49.763Z,1014
2022-08-03T09:54:02.487Z,1014
2022-08-03T09:56:37.212Z,1014
2022-08-03T09:58:01.970Z,1014.08
2022-08-03T10:00:08.976Z,1014.08
2022-08-03T10:02:02.238Z,1014.08
2022-08-03T10:04:05.416Z,1014.08
2022-08-03T10:06:02.354Z,1014.04
2022-08-03T10:08:02.272Z,1014.04
2022-08-03T10:10:32.435Z,1014.13
2022-08-03T10:12:02.088Z,1014.13
2022-08-03T10:14:02.359Z,1014.12
2022-08-03T10:16:25.986Z,1014.12
2022-08-03T10:18:01.903Z,1014.1
2022-08-03T10:20:02.360Z,1014.1
2022-08-03T10:22:01.984Z,1014.14
2022-08-03T10:24:01.806Z,1014.14
2022-08-03T10:26:02.364Z,1014.18
2022-08-03T10:28:01.980Z,1014.18
2022-08-03T10:30:01.769Z,1014.29
2022-08-03T10:32:02.190Z,1014.29
2022-08-03T10:34:02.383Z,1014.1
2022-08-03T10:36:02.059Z,1014.1
2022-08-03T10:38:02.384Z,1014.14
2022-08-03T10:40:01.942Z,1014.14
2022-08-03T10:42:03.139Z,1014.18
2022-08-03T10:44:01.764Z,1014.21
2022-08-03T10:46:02.164Z,1014.21
2022-08-03T10:48:01.981Z,1014.14
2022-08-03T10:50:01.642Z,1014.14
2022-08-03T10:52:13.865Z,1014.23
2022-08-03T10:54:02.331Z,1014.23
2022-08-03T10:56:02.047Z,1014.11
2022-08-03T10:58:02.392Z,1014.11
2022-08-03T11:00:05.023Z,1014.03
2022-08-03T11:02:02.113Z,1014.03
2022-08-03T11:04:11.923Z,1013.99
2022-08-03T11:06:01.710Z,1013.99
2022-08-03T11:08:02.143Z,1014.07
2022-08-03T11:10:03.979Z,1014.07
2022-08-03T11:12:01.901Z,1013.97
2022-08-03T11:14:02.150Z,1013.97
2022-08-03T11:16:07.758Z,1013.96
2022-08-03T11:18:01.761Z,1013.96
2022-08-03T11:20:02.367Z,1013.94
2022-08-03T11:22:02.419Z,1013.94
2022-08-03T11:24:07.019Z,1014.01
2022-08-03T11:26:02.166Z,1014.01
2022-08-03T11:28:02.243Z,1014.02
2022-08-03T11:30:02.321Z,1014.02
2022-08-03T11:32:02.135Z,1013.91
2022-08-03T11:34:02.224Z,1013.91
2022-08-03T11:36:01.627Z,1014.03
2022-08-03T11:38:05.835Z,1014.03
2022-08-03T11:40:03.182Z,1013.95
2022-08-03T11:42:02.558Z,1013.95
2022-08-03T11:44:02.076Z,1013.96
2022-08-03T11:46:02.134Z,1013.96
2022-08-03T11:48:02.403Z,1013.94
2022-08-03T11:50:02.176Z,1013.94
2022-08-03T11:52:02.132Z,1014
2022-08-03T11:54:01.769Z,1014
2022-08-03T11:56:04.390Z,1013.93
2022-08-03T11:59:22.502Z,1013.93
2022-08-03T12:00:04.607Z,1013.96
2022-08-03T12:02:01.676Z,1013.96
2022-08-03T12:04:02.070Z,1014
2022-08-03T12:06:03.842Z,1014
2022-08-03T12:08:06.854Z,1014.01
2022-08-03T12:10:01.975Z,1014.01
2022-08-03T12:12:02.134Z,1014
2022-08-03T12:14:52.666Z,1014
2022-08-03T12:16:01.713Z,1013.78
2022-08-03T12:18:01.866Z,1013.78
2022-08-03T12:20:02.252Z,1013.73
2022-08-03T12:22:01.805Z,1013.73
2022-08-03T12:24:01.721Z,1013.81
2022-08-03T12:26:02.906Z,1013.81
2022-08-03T12:28:01.806Z,1013.77
2022-08-03T12:30:02.391Z,1013.77
2022-08-03T12:32:01.658Z,1013.75
2022-08-03T12:34:02.027Z,1013.75
2022-08-03T12:36:02.375Z,1013.77
2022-08-03T12:38:01.758Z,1013.77
2022-08-03T12:40:10.932Z,1013.81
2022-08-03T12:42:02.195Z,1013.81
2022-08-03T12:44:02.443Z,1013.89
2022-08-03T12:46:02.500Z,1013.89
2022-08-03T12:48:02.005Z,1013.93
2022-08-03T12:50:02.469Z,1013.93
2022-08-03T12:52:07.926Z,1013.86
2022-08-03T12:54:01.925Z,1013.86
2022-08-03T12:56:06.535Z,1013.9
2022-08-03T12:58:02.296Z,1013.9
2022-08-03T13:00:29.567Z,1013.85
2022-08-03T13:02:09.134Z,1013.85
2022-08-03T13:04:02.780Z,1013.94
2022-08-03T13:06:02.541Z,1013.94
2022-08-03T13:08:01.896Z,1013.9
2022-08-03T13:10:08.480Z,1013.9
2022-08-03T13:12:02.925Z,1013.93
2022-08-03T13:14:02.029Z,1013.93
2022-08-03T13:16:01.729Z,1013.76
2022-08-03T13:18:02.335Z,1013.76
2022-08-03T13:20:01.842Z,1013.91
2022-08-03T13:22:05.112Z,1013.91
2022-08-03T13:24:01.999Z,1013.76
2022-08-03T13:26:02.444Z,1013.76
2022-08-03T13:28:08.931Z,1013.79
2022-08-03T13:30:02.224Z,1013.79
2022-08-03T13:32:02.246Z,1013.73
2022-08-03T13:34:02.077Z,1013.73
2022-08-03T13:36:02.375Z,1013.64
2022-08-03T13:38:01.765Z,1013.64
2022-08-03T13:40:05.453Z,1013.71
2022-08-03T13:42:02.434Z,1013.71
2022-08-03T13:44:30.181Z,1013.63
2022-08-03T13:46:01.703Z,1013.63
2022-08-03T13:48:01.855Z,1013.64
2022-08-03T13:50:03.585Z,1013.64
2022-08-03T13:52:02.188Z,1013.63
2022-08-03T13:54:01.868Z,1013.63
2022-08-03T13:56:02.327Z,1013.66
2022-08-03T13:58:07.851Z,1013.66
2022-08-03T14:00:04.804Z,1013.64
2022-08-03T14:02:02.007Z,1013.64
2022-08-03T14:04:01.806Z,1013.63
2022-08-03T14:06:01.965Z,1013.58
2022-08-03T14:08:05.800Z,1013.58
2022-08-03T14:10:02.444Z,1013.53
2022-08-03T14:12:08.986Z,1013.53
2022-08-03T14:14:01.625Z,1013.6
2022-08-03T14:16:02.185Z,1013.6
2022-08-03T14:18:02.513Z,1013.67
2022-08-03T14:20:36.654Z,1013.67
2022-08-03T14:22:07.034Z,1013.59
2022-08-03T14:24:02.106Z,1013.59
2022-08-03T14:26:02.490Z,1013.62
2022-08-03T14:28:02.070Z,1013.62
2022-08-03T14:30:02.288Z,1013.79
2022-08-03T14:32:13.432Z,1013.79
2022-08-03T14:34:02.136Z,1013.66
2022-08-03T14:36:01.601Z,1013.66
2022-08-03T14:38:01.846Z,1013.56
2022-08-03T14:40:02.066Z,1013.56
2022-08-03T14:42:01.606Z,1013.62
2022-08-03T14:44:02.906Z,1013.62
2022-08-03T14:46:02.524Z,1013.58
2022-08-03T14:50:42.937Z,1013.58
2022-08-03T14:50:44.224Z,1013.46
2022-08-03T14:52:02.351Z,1013.46
2022-08-03T14:54:02.028Z,1013.43
2022-08-03T14:56:10.743Z,1013.43
2022-08-03T14:58:02.523Z,1013.46
2022-08-03T15:00:05.586Z,1013.46
2022-08-03T15:02:15.954Z,1013.44
2022-08-03T15:04:01.982Z,1013.44
2022-08-03T15:06:02.412Z,1013.62
2022-08-03T15:08:09.278Z,1013.62
2022-08-03T15:10:02.716Z,1013.37
2022-08-03T15:12:02.278Z,1013.37
2022-08-03T15:14:09.548Z,1013.44
2022-08-03T15:16:02.441Z,1013.44
2022-08-03T15:18:01.887Z,1013.41
2022-08-03T15:20:43.270Z,1013.41
2022-08-03T15:22:01.965Z,1013.36
2022-08-03T15:24:02.013Z,1013.36
2022-08-03T15:26:39.282Z,1013.29
2022-08-03T15:28:04.907Z,1013.29
2022-08-03T15:30:10.540Z,1013.27
2022-08-03T15:32:09.652Z,1013.27
2022-08-03T15:34:02.142Z,1013.29
2022-08-03T15:36:02.285Z,1013.29
2022-08-03T15:38:09.649Z,1013.29
2022-08-03T15:40:02.822Z,1013.29
2022-08-03T15:42:02.314Z,1013.28
2022-08-03T15:44:09.500Z,1013.28
2022-08-03T15:46:30.050Z,1013.38
2022-08-03T15:48:02.087Z,1013.38
2022-08-03T15:50:09.892Z,1013.21
2022-08-03T15:52:02.458Z,1013.21
2022-08-03T15:54:02.323Z,1013.13
2022-08-03T15:56:13.244Z,1013.13
2022-08-03T15:59:14.231Z,1013.16
2022-08-03T16:00:04.541Z,1013.16
2022-08-03T16:02:01.873Z,1013.05
2022-08-03T16:04:01.747Z,1013.05
2022-08-03T16:06:02.358Z,1013.04
2022-08-03T16:08:07.093Z,1013.04
2022-08-03T16:10:01.966Z,1013
2022-08-03T16:12:02.295Z,1013
2022-08-03T16:14:42.183Z,1013.04
2022-08-03T16:16:01.721Z,1013.04
2022-08-03T16:18:02.158Z,1013.07
2022-08-03T16:20:12.636Z,1013.07
2022-08-03T16:22:03.440Z,1013.09
2022-08-03T16:24:05.932Z,1013.09
2022-08-03T16:26:09.021Z,1013.01
2022-08-03T16:28:14.256Z,1013.01
2022-08-03T16:30:02.031Z,1013
2022-08-03T16:32:09.652Z,1013
2022-08-03T16:34:02.433Z,1012.95
2022-08-03T16:36:02.474Z,1012.95
2022-08-03T16:38:10.933Z,1013.05
2022-08-03T16:40:01.869Z,1013.05
2022-08-03T16:42:02.158Z,1013.04
2022-08-03T16:44:10.077Z,1013.04
2022-08-03T16:46:02.327Z,1013.04
2022-08-03T16:48:06.334Z,1013.04
2022-08-03T16:50:17.182Z,1013.05
2022-08-03T16:52:02.313Z,1013.05
2022-08-03T16:54:14.079Z,1013.11
2022-08-03T16:56:10.150Z,1013.11
2022-08-03T16:58:02.618Z,1013.07
2022-08-03T17:00:05.355Z,1013.07
2022-08-03T17:02:10.434Z,1013.12
2022-08-03T17:04:05.278Z,1013.12
2022-08-03T17:06:02.055Z,1013.01
2022-08-03T17:08:12.714Z,1013.01
2022-08-03T17:10:02.555Z,1013.04
2022-08-03T17:12:02.040Z,1013.04
2022-08-03T17:14:09.809Z,1013.2
2022-08-03T17:16:02.727Z,1013.2
2022-08-03T17:18:02.598Z,1012.93
2022-08-03T17:20:09.582Z,1012.93
2022-08-03T17:22:05.000Z,1013
2022-08-03T17:24:01.567Z,1013
2022-08-03T17:26:08.955Z,1012.93
2022-08-03T17:28:57.956Z,1013.03
2022-08-03T17:30:02.869Z,1013.03
2022-08-03T17:32:10.201Z,1012.88
2022-08-03T17:34:07.035Z,1012.88
2022-08-03T17:36:02.551Z,1012.96
2022-08-03T17:38:10.511Z,1012.96
2022-08-03T17:40:04.440Z,1012.82
2022-08-03T17:42:02.092Z,1012.82
2022-08-03T17:44:35.076Z,1012.79
2022-08-03T17:46:10.988Z,1012.79
2022-08-03T17:48:02.207Z,1012.89
2022-08-03T17:50:23.351Z,1012.89
2022-08-03T17:52:03.365Z,1012.78
2022-08-03T17:54:01.999Z,1012.78
2022-08-03T17:56:09.979Z,1012.83
2022-08-03T17:58:03.522Z,1012.83
2022-08-03T18:00:05.687Z,1012.81
2022-08-03T18:02:29.954Z,1012.81
2022-08-03T18:04:02.333Z,1012.89
2022-08-03T18:06:12.949Z,1012.89
2022-08-03T18:08:04.921Z,1012.81
2022-08-03T18:10:11.414Z,1012.81
2022-08-03T18:12:01.767Z,1012.84
2022-08-03T18:14:17.017Z,1012.84
2022-08-03T18:16:02.557Z,1012.83
2022-08-03T18:18:11.225Z,1012.83
2022-08-03T18:20:32.713Z,1012.88
2022-08-03T18:22:04.570Z,1012.88
2022-08-03T18:24:02.328Z,1012.89
2022-08-03T18:26:02.106Z,1012.89
2022-08-03T18:28:01.805Z,1012.87
2022-08-03T18:30:02.220Z,1012.87
2022-08-03T18:32:13.007Z,1012.79
2022-08-03T18:34:33.148Z,1012.79
2022-08-03T18:36:01.541Z,1012.84
2022-08-03T18:38:02.880Z,1012.84
2022-08-03T18:40:01.819Z,1012.74
2022-08-03T18:42:02.166Z,1012.74
2022-08-03T18:44:37.673Z,1012.77
2022-08-03T18:46:01.728Z,1012.77
2022-08-03T18:48:02.191Z,1012.7
2022-08-03T18:50:02.466Z,1012.7
2022-08-03T18:52:03.606Z,1012.63
2022-08-03T18:56:03.384Z,1012.71
2022-08-03T18:58:04.841Z,1012.71
2022-08-03T19:00:11.120Z,1012.77
2022-08-03T19:02:04.634Z,1012.77
2022-08-03T19:04:02.755Z,1012.7
2022-08-03T19:06:19.046Z,1012.7
2022-08-03T19:08:02.241Z,1012.61
2022-08-03T19:10:04.868Z,1012.61
2022-08-03T19:12:32.519Z,1012.71
2022-08-03T19:14:02.463Z,1012.71
2022-08-03T19:16:02.471Z,1012.68
2022-08-03T19:18:10.756Z,1012.68
2022-08-03T19:20:02.300Z,1012.66
2022-08-03T19:22:04.351Z,1012.66
2022-08-03T19:24:10.301Z,1012.66
2022-08-03T19:26:01.897Z,1012.66
2022-08-03T19:28:01.562Z,1012.71
2022-08-03T19:30:14.130Z,1012.71
2022-08-03T19:32:02.143Z,1012.7
2022-08-03T19:34:02.495Z,1012.7
2022-08-03T19:36:10.221Z,1012.68
2022-08-03T19:38:02.260Z,1012.68
2022-08-03T19:40:03.765Z,1012.71
2022-08-03T19:42:19.999Z,1012.71
2022-08-03T19:44:04.727Z,1012.71
2022-08-03T19:46:07.027Z,1012.71
2022-08-03T19:48:09.710Z,1012.69
2022-08-03T19:52:03.803Z,1012.68
2022-08-03T19:54:02.056Z,1012.68
2022-08-03T19:56:01.958Z,1012.71
2022-08-03T19:58:02.733Z,1012.71
2022-08-03T20:00:05.428Z,1012.69
2022-08-03T20:02:03.738Z,1012.69
2022-08-03T20:04:02.159Z,1012.57
2022-08-03T20:06:02.156Z,1012.57
2022-08-03T20:08:02.291Z,1012.64
2022-08-03T20:10:02.167Z,1012.64
2022-08-03T20:12:01.638Z,1012.67
2022-08-03T20:14:02.249Z,1012.67
2022-08-03T20:16:02.209Z,1012.66
2022-08-03T20:18:02.154Z,1012.66
2022-08-03T20:20:02.580Z,1012.53
2022-08-03T20:22:02.987Z,1012.53
2022-08-03T20:24:25.083Z,1012.63
2022-08-03T20:26:02.255Z,1012.63
2022-08-03T20:28:14.916Z,1012.57
2022-08-03T20:30:08.130Z,1012.57
2022-08-03T20:32:01.768Z,1012.55
2022-08-03T20:34:01.631Z,1012.55
2022-08-03T20:36:02.153Z,1012.45
2022-08-03T20:38:02.071Z,1012.45
2022-08-03T20:40:01.916Z,1012.52
2022-08-03T20:42:02.515Z,1012.52
2022-08-03T20:44:02.159Z,1012.38
2022-08-03T20:46:50.051Z,1012.38
2022-08-03T20:48:01.743Z,1012.42
2022-08-03T20:50:02.207Z,1012.46
2022-08-03T20:52:02.443Z,1012.46
2022-08-03T20:54:28.805Z,1012.38
2022-08-03T20:58:03.587Z,1012.46
2022-08-03T21:00:11.897Z,1012.46
2022-08-03T21:02:02.157Z,1012.26
2022-08-03T21:04:07.300Z,1012.26
2022-08-03T21:06:02.415Z,1012.42
2022-08-03T21:08:07.188Z,1012.42
2022-08-03T21:10:01.721Z,1012.29
2022-08-03T21:12:01.891Z,1012.29
2022-08-03T21:13:11.099Z,1012.63
2022-08-03T21:13:17.441Z,1012.69
2022-08-03T21:13:18.091Z,1012.38
2022-08-03T21:14:02.276Z,1012.23
2022-08-03T21:16:15.375Z,1012.23
2022-08-03T21:18:02.436Z,1012.29
2022-08-03T21:20:02.208Z,1012.29
2022-08-03T21:22:01.803Z,1012.43
2022-08-03T21:24:02.429Z,1012.43
2022-08-03T21:26:01.987Z,1012.29
2022-08-03T21:28:01.613Z,1012.29
2022-08-03T21:30:01.953Z,1012.32
2022-08-03T21:32:02.479Z,1012.32
2022-08-03T21:34:02.091Z,1012.35
2022-08-03T21:36:03.674Z,1012.35
2022-08-03T21:38:02.056Z,1012.26
2022-08-03T21:40:02.581Z,1012.26
2022-08-03T21:42:04.635Z,1012.22
2022-08-03T21:44:02.167Z,1012.22
2022-08-03T21:46:02.500Z,1012.2
2022-08-03T21:48:01.695Z,1012.2
2022-08-03T21:50:09.919Z,1012.14
2022-08-03T21:52:02.410Z,1012.14
2022-08-03T21:54:04.955Z,1012.19
2022-08-03T21:56:02.302Z,1012.19
2022-08-03T21:58:01.989Z,1012.15
2022-08-03T22:00:09.169Z,1012.15
2022-08-03T22:02:04.264Z,1012.19
2022-08-03T22:04:02.166Z,1012.19
2022-08-03T22:06:06.072Z,1012.13
2022-08-03T22:08:02.080Z,1012.13
2022-08-03T22:10:01.682Z,1012.09
2022-08-03T22:12:01.793Z,1012.09
2022-08-03T22:14:01.856Z,1012.08
2022-08-03T22:16:02.297Z,1012.08
2022-08-03T22:18:02.366Z,1012.05
2022-08-03T22:20:02.441Z,1012.05
2022-08-03T22:22:02.225Z,1012.01
2022-08-03T22:24:01.612Z,1012.01
2022-08-03T22:26:01.596Z,1011.88
2022-08-03T22:28:01.954Z,1011.88
2022-08-03T22:30:02.530Z,1011.91
2022-08-03T22:32:01.994Z,1011.91
2022-08-03T22:34:01.794Z,1012.07
2022-08-03T22:36:02.397Z,1012.07
2022-08-03T22:38:02.137Z,1012.06
2022-08-03T22:40:03.182Z,1012.06
2022-08-03T22:42:02.155Z,1012.01
2022-08-03T22:44:05.000Z,1012.01
2022-08-03T22:46:18.275Z,1012.04
2022-08-03T22:48:02.035Z,1012.04
2022-08-03T22:50:34.136Z,1012.05
2022-08-03T22:52:02.398Z,1012.05
2022-08-03T22:54:05.860Z,1011.99
2022-08-03T22:56:01.947Z,1011.99
2022-08-03T22:58:02.459Z,1012.02
2022-08-03T23:00:04.752Z,1012.02
2022-08-03T23:02:20.307Z,1012.13
2022-08-03T23:04:02.913Z,1012.13
2022-08-03T23:06:04.082Z,1012.13
2022-08-03T23:08:02.219Z,1012.13
2022-08-03T23:10:01.722Z,1012.17
2022-08-03T23:12:02.117Z,1012.17
2022-08-03T23:14:04.332Z,1012.23
2022-08-03T23:16:02.049Z,1012.23
2022-08-03T23:18:02.513Z,1012.21
2022-08-03T23:20:01.831Z,1012.21
2022-08-03T23:22:04.252Z,1012.1
2022-08-03T23:24:01.696Z,1012.1
2022-08-03T23:26:02.122Z,1012.14
2022-08-03T23:28:06.369Z,1012.14
2022-08-03T23:30:01.713Z,1012.05
2022-08-03T23:32:01.853Z,1012.05
2022-08-03T23:34:03.269Z,1012.11
2022-08-03T23:36:32.109Z,1012.11
2022-08-03T23:38:23.335Z,1012.19
2022-08-03T23:40:01.765Z,1012.19
2022-08-03T23:42:02.212Z,1012.2
2022-08-03T23:44:03.912Z,1012.2
2022-08-03T23:46:02.088Z,1012.09
2022-08-03T23:48:01.734Z,1012.09
2022-08-03T23:50:04.099Z,1012.12
2022-08-03T23:52:01.676Z,1012.12
2022-08-03T23:54:02.639Z,1012.04
2022-08-03T23:56:02.217Z,1012.04
2022-08-03T23:58:01.935Z,1012
